Time;durP1;ratioP1;P1;durP2;ratioP2;P2;SDS_P1;SDS_P2;PMS_P1;PMS_P2;Temp;Humidity;BMP_temperature;BMP_pressure;BME280_temperature;BME280_humidity;BME280_pressure;Samples;Min_cycle;Max_cycle;Signal;HPM_P1;HPM_P2
2022/05/30 00:01:37;;;;;;;;;;;;;;;;;;4915402;29;20366;-66
2022/05/30 00:04:03;;;;;;;;;;;;;;;;;;4915564;29;20323;-66
2022/05/30 00:06:29;;;;;;;;;;;;;;;;;;4924379;29;19923;-65
2022/05/30 00:08:55;;;;;;;;;;;;;;;;;;4915443;29;19919;-66
2022/05/30 00:11:22;;;;;;;;;;;;;;;;;;4915337;29;19919;-66
2022/05/30 00:13:48;;;;;;;;;;;;;;;;;;4915367;29;19919;-66
2022/05/30 00:16:15;;;;;;;;;;;;;;;;;;4915215;29;19938;-66
2022/05/30 00:18:41;;;;;;;;;;;;;;;;;;4915381;29;20386;-66
2022/05/30 00:21:07;;;;;;;;;;;;;;;;;;4914373;29;19930;-66
2022/05/30 00:23:33;;;;;;;;;;;;;;;;;;4916936;29;19926;-67
2022/05/30 00:25:59;;;;;;;;;;;;;;;;;;4918713;29;20282;-66
2022/05/30 00:28:25;;;;;;;;;;;;;;;;;;4917894;29;19919;-67
2022/05/30 00:30:51;;;;;;;;;;;;;;;;;;4910188;29;19925;-70
2022/05/30 00:33:18;;;;;;;;;;;;;;;;;;4917574;29;19923;-68
2022/05/30 00:35:43;;;;;;;;;;;;;;;;;;4935776;29;19974;-67
2022/05/30 00:38:09;;;;;;;;;;;;;;;;;;4936964;29;19927;-69
2022/05/30 00:40:35;;;;;;;;;;;;;;;;;;4938055;29;20658;-73
2022/05/30 00:43:20;;;;;;;;;;;;;;;;;;4939852;29;20385;-66
2022/05/30 00:45:46;;;;;;;;;;;;;;;;;;4937685;29;19925;-65
2022/05/30 00:48:11;;;;;;;;;;;;;;;;;;4937734;29;20009;-66
2022/05/30 00:50:38;;;;;;;;;;;;;;;;;;4937732;29;20329;-66
2022/05/30 00:53:04;;;;;;;;;;;;;;;;;;4935993;29;19921;-66
2022/05/30 00:55:30;;;;;;;;;;;;;;;;;;4935951;29;19918;-65
2022/05/30 00:57:56;;;;;;;;;;;;;;;;;;4919940;29;19922;-66
2022/05/30 01:00:25;;;;;;;;;;;;;;;;;;4920207;29;19919;-66
2022/05/30 01:08:23;;;;;;;;;;;;;;;;;;4919927;29;20027;-65
2022/05/30 01:10:49;;;;;;;;;;;;;;;;;;4935709;29;19915;-66
2022/05/30 01:13:15;;;;;;;;;;;;;;;;;;4935775;29;19965;-66
2022/05/30 01:15:41;;;;;;;;;;;;;;;;;;4937084;29;19923;-65
2022/05/30 01:18:17;;;;;;;;;;;;;;;;;;4920037;29;19922;-65
2022/05/30 01:20:49;;;;;;;;;;;;;;;;;;4919947;29;19918;-65
2022/05/30 01:23:21;;;;;;;;;;;;;;;;;;4936882;29;19918;-65
2022/05/30 01:25:54;;;;;;;;;;;;;;;;;;4919185;29;19926;-65
2022/05/30 01:28:45;;;;;;;;;;;;;;;;;;4935361;29;19918;-64
2022/05/30 01:31:11;;;;;;;;;;;;;;;;;;4919329;29;20406;-65
2022/05/30 01:33:38;;;;;;;;;;;;;;;;;;4934651;29;19950;-66
2022/05/30 01:36:05;;;;;;;;;;;;;;;;;;4931617;29;19919;-66
2022/05/30 01:38:31;;;;;;;;;;;;;;;;;;4917538;29;19926;-66
2022/05/30 01:41:00;;;;;;;;;;;;;;;;;;4916184;29;19919;-66
2022/05/30 01:43:27;;;;;;;;;;;;;;;;;;4916087;29;19915;-66
2022/05/30 01:46:09;;;;;;;;;;;;;;;;;;4916080;29;19919;-66
2022/05/30 01:48:40;;;;;;;;;;;;;;;;;;4916119;29;19922;-65
2022/05/30 01:51:06;;;;;;;;;;;;;;;;;;4916020;29;19923;-66
2022/05/30 01:53:32;;;;;;;;;;;;;;;;;;4917359;29;19915;-66
2022/05/30 01:56:21;;;;;;;;;;;;;;;;;;4901624;29;20359;-66
2022/05/30 01:58:49;;;;;;;;;;;;;;;;;;4896801;29;19942;-66
2022/05/30 02:01:33;;;;;;;;;;;;;;;;;;4898483;29;19967;-64
2022/05/30 02:04:01;;;;;;;;;;;;;;;;;;4896792;29;20029;-66
2022/05/30 02:06:27;;;;;;;;;;;;;;;;;;4897824;29;20370;-65
2022/05/30 02:08:53;;;;;;;;;;;;;;;;;;4897811;29;19919;-66
2022/05/30 02:11:23;;;;;;;;;;;;;;;;;;4900932;29;20311;-66
2022/05/30 02:13:52;;;;;;;;;;;;;;;;;;4896738;29;19920;-67
2022/05/30 02:19:10;;;;;;;;;;;;;;;;;;4898229;29;20325;-65
2022/05/30 02:21:36;;;;;;;;;;;;;;;;;;4896411;29;19927;-66
2022/05/30 02:24:06;;;;;;;;;;;;;;;;;;4897794;29;20308;-66
2022/05/30 02:26:33;;;;;;;;;;;;;;;;;;4896567;29;19923;-65
2022/05/30 02:28:59;;;;;;;;;;;;;;;;;;4896325;29;19922;-66
2022/05/30 02:31:25;;;;;;;;;;;;;;;;;;4897492;29;19919;-66
2022/05/30 02:36:41;;;;;;;;;;;;;;;;;;4898235;29;19919;-65
2022/05/30 02:39:10;;;;;;;;;;;;;;;;;;4896451;29;19923;-66
2022/05/30 02:42:02;;;;;;;;;;;;;;;;;;4882534;29;19994;-65
2022/05/30 02:44:32;;;;;;;;;;;;;;;;;;4895838;29;20334;-66
2022/05/30 02:46:57;;;;;;;;;;;;;;;;;;4895815;29;19923;-65
2022/05/30 02:49:24;;;;;;;;;;;;;;;;;;4896203;29;19916;-66
2022/05/30 02:51:51;;;;;;;;;;;;;;;;;;4897274;29;19915;-66
2022/05/30 02:54:17;;;;;;;;;;;;;;;;;;4896385;29;19938;-65
2022/05/30 02:57:02;;;;;;;;;;;;;;;;;;4897510;29;19922;-65
2022/05/30 02:59:29;;;;;;;;;;;;;;;;;;4895900;29;19942;-65
2022/05/30 03:02:03;;;;;;;;;;;;;;;;;;4896048;29;19920;-65
2022/05/30 03:04:29;;;;;;;;;;;;;;;;;;4896023;29;19919;-66
2022/05/30 03:06:55;;;;;;;;;;;;;;;;;;4897015;29;19963;-66
2022/05/30 03:09:20;;;;;;;;;;;;;;;;;;4895459;29;19919;-67
2022/05/30 03:12:05;;;;;;;;;;;;;;;;;;4897102;29;19950;-69
2022/05/30 03:14:30;;;;;;;;;;;;;;;;;;4892738;29;20385;-66
2022/05/30 03:16:56;;;;;;;;;;;;;;;;;;4892853;29;19916;-67
2022/05/30 03:19:22;;;;;;;;;;;;;;;;;;4892500;29;20409;-66
2022/05/30 03:21:49;;;;;;;;;;;;;;;;;;4892690;29;19923;-67
2022/05/30 03:24:15;;;;;;;;;;;;;;;;;;4892445;29;19920;-67
2022/05/30 03:26:41;;;;;;;;;;;;;;;;;;4878264;29;19971;-69
2022/05/30 03:29:07;;;;;;;;;;;;;;;;;;4878502;29;19920;-65
2022/05/30 03:31:36;;;;;;;;;;;;;;;;;;4892414;29;20014;-66
2022/05/30 03:34:01;;;;;;;;;;;;;;;;;;4893054;29;19991;-66
2022/05/30 03:36:28;;;;;;;;;;;;;;;;;;4896961;29;19919;-67
2022/05/30 03:39:03;;;;;;;;;;;;;;;;;;4896751;29;19924;-70
2022/05/30 03:41:49;;;;;;;;;;;;;;;;;;4896453;29;19926;-66
2022/05/30 03:44:31;;;;;;;;;;;;;;;;;;4895293;29;19927;-69
2022/05/30 03:46:57;;;;;;;;;;;;;;;;;;4895305;29;19919;-66
2022/05/30 03:49:22;;;;;;;;;;;;;;;;;;4895253;29;19930;-69
2022/05/30 03:51:50;;;;;;;;;;;;;;;;;;4895535;29;19930;-68
2022/05/30 03:54:16;;;;;;;;;;;;;;;;;;4879763;29;19915;-65
2022/05/30 03:56:42;;;;;;;;;;;;;;;;;;4898193;29;19926;-67
2022/05/30 03:59:08;;;;;;;;;;;;;;;;;;4883129;29;19915;-67
2022/05/30 04:01:34;;;;;;;;;;;;;;;;;;4898778;29;20358;-69
2022/05/30 04:03:59;;;;;;;;;;;;;;;;;;4898477;29;19915;-71
2022/05/30 04:06:26;;;;;;;;;;;;;;;;;;4898195;29;19954;-68
2022/05/30 04:08:52;;;;;;;;;;;;;;;;;;4898548;29;20381;-69
2022/05/30 04:11:27;;;;;;;;;;;;;;;;;;4899773;29;19920;-69
2022/05/30 04:14:11;;;;;;;;;;;;;;;;;;4900075;29;19926;-70
2022/05/30 04:16:44;;;;;;;;;;;;;;;;;;4898502;29;20347;-71
2022/05/30 04:19:11;;;;;;;;;;;;;;;;;;4899811;29;19919;-70
2022/05/30 04:21:38;;;;;;;;;;;;;;;;;;4904440;29;20282;-67
2022/05/30 04:24:04;;;;;;;;;;;;;;;;;;4901625;29;20370;-66
2022/05/30 04:26:37;;;;;;;;;;;;;;;;;;4905397;29;19915;-69
2022/05/30 04:29:04;;;;;;;;;;;;;;;;;;4921015;29;19958;-72
2022/05/30 04:31:39;;;;;;;;;;;;;;;;;;4918332;29;19911;-69
2022/05/30 04:34:04;;;;;;;;;;;;;;;;;;4919061;29;19973;-68
2022/05/30 04:36:30;;;;;;;;;;;;;;;;;;4919505;29;19969;-71
2022/05/30 04:38:57;;;;;;;;;;;;;;;;;;4902074;29;20254;-70
2022/05/30 04:41:35;;;;;;;;;;;;;;;;;;4918976;29;19915;-67
2022/05/30 04:44:19;;;;;;;;;;;;;;;;;;4918089;29;19965;-72
2022/05/30 04:47:03;;;;;;;;;;;;;;;;;;4917348;29;20362;-71
2022/05/30 04:49:29;;;;;;;;;;;;;;;;;;4900382;29;19926;-68
2022/05/30 04:51:55;;;;;;;;;;;;;;;;;;4916944;29;19962;-71
2022/05/30 04:54:21;;;;;;;;;;;;;;;;;;4899979;29;20349;-71
2022/05/30 04:57:11;;;;;;;;;;;;;;;;;;4900075;29;20018;-73
2022/05/30 04:59:47;;;;;;;;;;;;;;;;;;4901170;29;19919;-72
2022/05/30 05:02:15;;;;;;;;;;;;;;;;;;4901802;29;19919;-72
2022/05/30 05:04:41;;;;;;;;;;;;;;;;;;4918996;29;20421;-72
2022/05/30 05:07:07;;;;;;;;;;;;;;;;;;4901422;29;20010;-71
2022/05/30 05:09:35;;;;;;;;;;;;;;;;;;4900967;29;19923;-69
2022/05/30 05:12:29;;;;;;;;;;;;;;;;;;4883074;29;19944;-68
2022/05/30 05:15:13;;;;;;;;;;;;;;;;;;4918897;29;20441;-69
2022/05/30 05:18:11;;;;;;;;;;;;;;;;;;4909313;29;19978;-73
2022/05/30 05:20:38;;;;;;;;;;;;;;;;;;4900923;29;19923;-68
2022/05/30 05:23:04;;;;;;;;;;;;;;;;;;4918549;29;20359;-72
2022/05/30 05:25:50;;;;;;;;;;;;;;;;;;4917032;29;19926;-73
2022/05/30 05:28:30;;;;;;;;;;;;;;;;;;4917107;29;20248;-74
2022/05/30 05:30:55;;;;;;;;;;;;;;;;;;4916928;29;20002;-68
2022/05/30 05:33:21;;;;;;;;;;;;;;;;;;4900970;29;19960;-68
2022/05/30 05:35:47;;;;;;;;;;;;;;;;;;4916770;29;19919;-69
2022/05/30 05:38:13;;;;;;;;;;;;;;;;;;4901149;29;20025;-67
2022/05/30 05:40:59;;;;;;;;;;;;;;;;;;4917894;29;19919;-67
2022/05/30 05:43:33;;;;;;;;;;;;;;;;;;4916406;29;20353;-66
2022/05/30 05:45:59;;;;;;;;;;;;;;;;;;4916514;29;20005;-69
2022/05/30 05:48:24;;;;;;;;;;;;;;;;;;4917767;29;20313;-72
2022/05/30 05:50:50;;;;;;;;;;;;;;;;;;4916570;29;19946;-73
2022/05/30 05:53:16;;;;;;;;;;;;;;;;;;4916389;29;19918;-70
2022/05/30 05:55:44;;;;;;;;;;;;;;;;;;4916552;29;20013;-72
2022/05/30 05:58:09;;;;;;;;;;;;;;;;;;4916531;29;19915;-74
2022/05/30 06:00:35;;;;;;;;;;;;;;;;;;4900337;29;19926;-71
2022/05/30 06:03:01;;;;;;;;;;;;;;;;;;4900384;29;19922;-71
2022/05/30 06:05:47;;;;;;;;;;;;;;;;;;4917394;29;20070;-70
2022/05/30 06:08:38;;;;;;;;;;;;;;;;;;4915429;29;19926;-74
2022/05/30 06:11:21;;;;;;;;;;;;;;;;;;4916553;29;19954;-71
2022/05/30 06:13:53;;;;;;;;;;;;;;;;;;4900205;29;20073;-68
2022/05/30 06:16:21;;;;;;;;;;;;;;;;;;4900418;29;20378;-74
2022/05/30 06:18:51;;;;;;;;;;;;;;;;;;4922484;29;20002;-73
2022/05/30 06:21:18;;;;;;;;;;;;;;;;;;4918758;29;19919;-72
2022/05/30 06:23:46;;;;;;;;;;;;;;;;;;4900099;29;19911;-73
2022/05/30 06:26:30;;;;;;;;;;;;;;;;;;4902867;29;19941;-73
2022/05/30 06:29:11;;;;;;;;;;;;;;;;;;4915839;29;19923;-71
2022/05/30 06:31:37;;;;;;;;;;;;;;;;;;4898679;29;20013;-72
2022/05/30 06:34:05;;;;;;;;;;;;;;;;;;4916669;29;20003;-74
2022/05/30 06:36:35;;;;;;;;;;;;;;;;;;4916052;29;19953;-72
2022/05/30 06:39:01;;;;;;;;;;;;;;;;;;4915682;29;19919;-69
2022/05/30 06:41:34;;;;;;;;;;;;;;;;;;4899793;29;19919;-73
2022/05/30 06:44:06;;;;;;;;;;;;;;;;;;4899885;29;19919;-74
2022/05/30 06:46:50;;;;;;;;;;;;;;;;;;4916853;29;20132;-73
2022/05/30 06:49:34;;;;;;;;;;;;;;;;;;4916647;29;20300;-71
2022/05/30 06:52:00;;;;;;;;;;;;;;;;;;4898982;29;20397;-70
2022/05/30 06:54:26;;;;;;;;;;;;;;;;;;4915055;29;19915;-71
2022/05/30 06:59:36;;;;;;;;;;;;;;;;;;4916415;29;20374;-72
2022/05/30 07:02:06;;;;;;;;;;;;;;;;;;4916593;29;20358;-72
2022/05/30 07:04:51;;;;;;;;;;;;;;;;;;4916774;29;19925;-75
2022/05/30 07:07:40;;;;;;;;;;;;;;;;;;4905834;29;19919;-72
2022/05/30 07:10:28;;;;;;;;;;;;;;;;;;4909319;29;20344;-72
2022/05/30 07:13:12;;;;;;;;;;;;;;;;;;4915159;29;19930;-72
2022/05/30 07:15:38;;;;;;;;;;;;;;;;;;4914892;29;19915;-70
2022/05/30 07:18:12;;;;;;;;;;;;;;;;;;4899235;29;20017;-71
2022/05/30 07:20:38;;;;;;;;;;;;;;;;;;4915965;29;20388;-72
2022/05/30 07:23:23;;;;;;;;;;;;;;;;;;4916335;29;19922;-71
2022/05/30 07:26:09;;;;;;;;;;;;;;;;;;4916522;29;19970;-71
2022/05/30 07:29:05;;;;;;;;;;;;;;;;;;4914110;29;19919;-70
2022/05/30 07:31:49;;;;;;;;;;;;;;;;;;4917732;29;20017;-73
2022/05/30 07:34:40;;;;;;;;;;;;;;;;;;4925826;29;19974;-73
2022/05/30 07:37:26;;;;;;;;;;;;;;;;;;4928025;29;20282;-72
2022/05/30 07:40:06;;;;;;;;;;;;;;;;;;4918455;29;19919;-74
2022/05/30 07:42:50;;;;;;;;;;;;;;;;;;4919818;29;20381;-74
2022/05/30 07:45:34;;;;;;;;;;;;;;;;;;4919789;29;19941;-72
2022/05/30 07:48:29;;;;;;;;;;;;;;;;;;4910952;29;20014;-73
2022/05/30 07:51:27;;;;;;;;;;;;;;;;;;4887811;29;19955;-71
2022/05/30 07:54:21;;;;;;;;;;;;;;;;;;4904422;29;19926;-75
2022/05/30 07:56:58;;;;;;;;;;;;;;;;;;4902643;29;20271;-75
2022/05/30 07:59:24;;;;;;;;;;;;;;;;;;4918050;29;19919;-72
2022/05/30 08:01:50;;;;;;;;;;;;;;;;;;4919343;29;19919;-74
2022/05/30 08:04:16;;;;;;;;;;;;;;;;;;4918083;29;19947;-74
2022/05/30 08:06:44;;;;;;;;;;;;;;;;;;4918703;29;19919;-74
2022/05/30 08:09:13;;;;;;;;;;;;;;;;;;4921240;29;19997;-74
2022/05/30 08:11:53;;;;;;;;;;;;;;;;;;4907580;29;20009;-74
2022/05/30 08:14:39;;;;;;;;;;;;;;;;;;4919253;29;19919;-71
2022/05/30 08:17:05;;;;;;;;;;;;;;;;;;4917527;29;19926;-74
2022/05/30 08:19:31;;;;;;;;;;;;;;;;;;4917430;29;19919;-74
2022/05/30 08:22:02;;;;;;;;;;;;;;;;;;4917823;29;19923;-73
2022/05/30 08:24:28;;;;;;;;;;;;;;;;;;4901646;29;19930;-74
2022/05/30 08:27:01;;;;;;;;;;;;;;;;;;4901997;29;19915;-73
2022/05/30 08:29:42;;;;;;;;;;;;;;;;;;4901952;29;20361;-73
2022/05/30 08:32:08;;;;;;;;;;;;;;;;;;4901981;29;20001;-73
2022/05/30 08:34:59;;;;;;;;;;;;;;;;;;4918213;29;20010;-74
2022/05/30 08:37:30;;;;;;;;;;;;;;;;;;4901389;29;19919;-72
2022/05/30 08:42:42;;;;;;;;;;;;;;;;;;4900867;29;19990;-72
2022/05/30 08:45:17;;;;;;;;;;;;;;;;;;4918468;29;19915;-71
2022/05/30 08:48:11;;;;;;;;;;;;;;;;;;4901291;29;19925;-71
2022/05/30 08:50:39;;;;;;;;;;;;;;;;;;4901177;29;19989;-72
2022/05/30 08:53:23;;;;;;;;;;;;;;;;;;4918174;29;20006;-70
2022/05/30 08:55:54;;;;;;;;;;;;;;;;;;4901378;29;20278;-70
2022/05/30 08:58:49;;;;;;;;;;;;;;;;;;4918304;29;19941;-70
2022/05/30 09:01:20;;;;;;;;;;;;;;;;;;4901186;29;19919;-70
2022/05/30 09:04:24;;;;;;;;;;;;;;;;;;4917086;29;19918;-71
2022/05/30 09:06:53;;;;;;;;;;;;;;;;;;4901273;29;20048;-69
2022/05/30 09:09:37;;;;;;;;;;;;;;;;;;4902390;29;20002;-69
2022/05/30 09:12:10;;;;;;;;;;;;;;;;;;4901384;29;19919;-71
2022/05/30 09:14:51;;;;;;;;;;;;;;;;;;4901198;29;20388;-71
2022/05/30 09:17:19;;;;;;;;;;;;;;;;;;4901066;29;19954;-76
2022/05/30 09:19:45;;;;;;;;;;;;;;;;;;4901115;29;19966;-75
2022/05/30 09:22:13;;;;;;;;;;;;;;;;;;4916761;29;19926;-74
2022/05/30 09:27:45;;;;;;;;;;;;;;;;;;4900884;29;20294;-72
2022/05/30 09:30:53;;;;;;;;;;;;;;;;;;4918171;29;19957;-74
2022/05/30 09:33:43;;;;;;;;;;;;;;;;;;4906876;29;19923;-71
2022/05/30 09:36:29;;;;;;;;;;;;;;;;;;4917288;29;19945;-74
2022/05/30 09:39:24;;;;;;;;;;;;;;;;;;4909038;29;19919;-74
2022/05/30 09:41:54;;;;;;;;;;;;;;;;;;4900188;29;19927;-72
2022/05/30 09:44:39;;;;;;;;;;;;;;;;;;4900517;29;19919;-71
2022/05/30 09:47:24;;;;;;;;;;;;;;;;;;4900201;29;19930;-71
2022/05/30 09:50:12;;;;;;;;;;;;;;;;;;4916905;29;19926;-72
2022/05/30 09:52:40;;;;;;;;;;;;;;;;;;4900179;29;20370;-73
2022/05/30 09:55:21;;;;;;;;;;;;;;;;;;4884413;29;20373;-72
2022/05/30 09:57:48;;;;;;;;;;;;;;;;;;4908781;29;19998;-71
2022/05/30 10:00:37;;;;;;;;;;;;;;;;;;4919451;29;19915;-72
2022/05/30 10:03:09;;;;;;;;;;;;;;;;;;4935403;29;20274;-74
2022/05/30 10:05:35;;;;;;;;;;;;;;;;;;4935567;29;19925;-70
2022/05/30 10:08:04;;;;;;;;;;;;;;;;;;4919564;29;20016;-73
2022/05/30 10:10:53;;;;;;;;;;;;;;;;;;4915296;29;20289;-71
2022/05/30 10:13:31;;;;;;;;;;;;;;;;;;4899830;29;19919;-73
2022/05/30 10:16:28;;;;;;;;;;;;;;;;;;4915465;29;20017;-74
2022/05/30 10:18:55;;;;;;;;;;;;;;;;;;4917373;29;19919;-73
2022/05/30 10:28:14;;;;;;;;;;;;;;;;;;4899454;29;19921;-71
2022/05/30 10:28:52;;;;;;;;;;;;;;;;;;4900088;29;20442;-70
2022/05/30 10:31:20;;;;;;;;;;;;;;;;;;4917176;29;19919;-70
2022/05/30 10:33:54;;;;;;;;;;;;;;;;;;4899879;29;19923;-70
2022/05/30 10:36:21;;;;;;;;;;;;;;;;;;4899379;29;19925;-69
2022/05/30 10:38:47;;;;;;;;;;;;;;;;;;4899165;29;19919;-68
2022/05/30 10:41:15;;;;;;;;;;;;;;;;;;4900255;29;19922;-70
2022/05/30 10:44:00;;;;;;;;;;;;;;;;;;4899919;29;19923;-68
2022/05/30 10:46:32;;;;;;;;;;;;;;;;;;4899212;29;19919;-70
2022/05/30 10:49:01;;;;;;;;;;;;;;;;;;4916891;29;19919;-68
2022/05/30 10:51:31;;;;;;;;;;;;;;;;;;4900047;29;20341;-67
2022/05/30 10:54:06;;;;;;;;;;;;;;;;;;4899681;29;19970;-69
2022/05/30 10:56:51;;;;;;;;;;;;;;;;;;4899672;29;19919;-69
2022/05/30 10:59:47;;;;;;;;;;;;;;;;;;4884504;29;19984;-69
2022/05/30 11:02:22;;;;;;;;;;;;;;;;;;4888883;29;19919;-70
2022/05/30 11:04:53;;;;;;;;;;;;;;;;;;4899078;29;20698;-71
2022/05/30 11:07:30;;;;;;;;;;;;;;;;;;4916323;29;19919;-71
2022/05/30 11:10:02;;;;;;;;;;;;;;;;;;4899692;29;19941;-69
2022/05/30 11:12:38;;;;;;;;;;;;;;;;;;4894434;29;19922;-68
2022/05/30 11:15:10;;;;;;;;;;;;;;;;;;4898277;29;20028;-72
2022/05/30 11:17:54;;;;;;;;;;;;;;;;;;4916289;29;19941;-69
2022/05/30 11:20:23;;;;;;;;;;;;;;;;;;4915599;29;20374;-73
2022/05/30 11:22:55;;;;;;;;;;;;;;;;;;4898882;29;19922;-67
2022/05/30 11:25:24;;;;;;;;;;;;;;;;;;4916103;29;20362;-71
2022/05/30 11:27:52;;;;;;;;;;;;;;;;;;4914230;29;19957;-71
2022/05/30 11:30:24;;;;;;;;;;;;;;;;;;4914789;29;19962;-72
2022/05/30 11:32:50;;;;;;;;;;;;;;;;;;4915452;29;19919;-72
2022/05/30 11:35:28;;;;;;;;;;;;;;;;;;4915013;29;19923;-68
2022/05/30 11:38:13;;;;;;;;;;;;;;;;;;4915687;29;20417;-73
2022/05/30 11:40:44;;;;;;;;;;;;;;;;;;4914807;29;19919;-70
2022/05/30 11:43:14;;;;;;;;;;;;;;;;;;4913022;29;19919;-70
2022/05/30 11:45:54;;;;;;;;;;;;;;;;;;4915139;29;19919;-70
2022/05/30 11:48:26;;;;;;;;;;;;;;;;;;4915601;29;19982;-69
2022/05/30 11:50:51;;;;;;;;;;;;;;;;;;4914316;29;19930;-74
2022/05/30 11:53:26;;;;;;;;;;;;;;;;;;4915354;29;19915;-73
2022/05/30 11:55:58;;;;;;;;;;;;;;;;;;4915195;29;19918;-73
2022/05/30 11:58:30;;;;;;;;;;;;;;;;;;4913772;29;19929;-73
2022/05/30 12:00:58;;;;;;;;;;;;;;;;;;4915275;29;19919;-72
2022/05/30 12:03:39;;;;;;;;;;;;;;;;;;4915205;29;19915;-70
2022/05/30 12:06:23;;;;;;;;;;;;;;;;;;4914702;29;19925;-71
2022/05/30 12:09:07;;;;;;;;;;;;;;;;;;4914430;29;19919;-70
2022/05/30 12:11:51;;;;;;;;;;;;;;;;;;4914458;29;20549;-69
2022/05/30 12:14:47;;;;;;;;;;;;;;;;;;4914848;29;19919;-70
2022/05/30 12:17:13;;;;;;;;;;;;;;;;;;4905695;29;19954;-68
2022/05/30 12:25:29;;;;;;;;;;;;;;;;;;4916934;29;19919;-71
2022/05/30 12:27:56;;;;;;;;;;;;;;;;;;4919178;29;20294;-71
2022/05/30 12:30:33;;;;;;;;;;;;;;;;;;4919182;29;19919;-71
2022/05/30 12:32:59;;;;;;;;;;;;;;;;;;4919284;29;19919;-69
2022/05/30 12:35:27;;;;;;;;;;;;;;;;;;4918491;29;20655;-70
2022/05/30 12:37:59;;;;;;;;;;;;;;;;;;4909558;29;19922;-71
2022/05/30 12:40:25;;;;;;;;;;;;;;;;;;4920340;29;19974;-72
2022/05/30 12:43:06;;;;;;;;;;;;;;;;;;4905231;29;19915;-73
2022/05/30 12:45:46;;;;;;;;;;;;;;;;;;4918747;29;19965;-70
2022/05/30 12:48:16;;;;;;;;;;;;;;;;;;4918733;29;19983;-69
2022/05/30 12:50:51;;;;;;;;;;;;;;;;;;4919043;29;20342;-69
2022/05/30 12:53:18;;;;;;;;;;;;;;;;;;4917488;29;19919;-70
2022/05/30 12:55:48;;;;;;;;;;;;;;;;;;4917719;29;20064;-75
2022/05/30 12:58:20;;;;;;;;;;;;;;;;;;4918149;29;19923;-71
2022/05/30 13:00:49;;;;;;;;;;;;;;;;;;4918587;29;19974;-72
2022/05/30 13:03:30;;;;;;;;;;;;;;;;;;4919982;29;19915;-71
2022/05/30 13:05:59;;;;;;;;;;;;;;;;;;4899337;29;19926;-73
2022/05/30 13:08:43;;;;;;;;;;;;;;;;;;4902626;29;19915;-72
2022/05/30 13:11:17;;;;;;;;;;;;;;;;;;4917904;29;20022;-71
2022/05/30 13:13:45;;;;;;;;;;;;;;;;;;4918716;29;20242;-71
2022/05/30 13:16:21;;;;;;;;;;;;;;;;;;4912438;29;19938;-72
2022/05/30 13:18:47;;;;;;;;;;;;;;;;;;4917677;29;19926;-71
2022/05/30 13:21:13;;;;;;;;;;;;;;;;;;4917904;29;20281;-72
2022/05/30 13:23:39;;;;;;;;;;;;;;;;;;4916582;29;19925;-71
2022/05/30 13:26:05;;;;;;;;;;;;;;;;;;4920099;29;19918;-72
2022/05/30 13:28:35;;;;;;;;;;;;;;;;;;4930289;29;19923;-69
2022/05/30 13:31:02;;;;;;;;;;;;;;;;;;4918105;29;19998;-71
2022/05/30 13:33:28;;;;;;;;;;;;;;;;;;4917669;29;19915;-71
2022/05/30 13:35:59;;;;;;;;;;;;;;;;;;4916793;29;19919;-74
2022/05/30 13:38:30;;;;;;;;;;;;;;;;;;4918259;29;19959;-70
2022/05/30 13:40:56;;;;;;;;;;;;;;;;;;4918180;29;19983;-71
2022/05/30 13:43:30;;;;;;;;;;;;;;;;;;4917864;29;19919;-71
2022/05/30 13:45:57;;;;;;;;;;;;;;;;;;4917647;29;19919;-69
2022/05/30 13:48:22;;;;;;;;;;;;;;;;;;4917583;29;19938;-70
2022/05/30 13:50:59;;;;;;;;;;;;;;;;;;4917844;29;20370;-71
2022/05/30 13:53:26;;;;;;;;;;;;;;;;;;4915511;29;19919;-70
2022/05/30 13:55:54;;;;;;;;;;;;;;;;;;4910998;29;20032;-69
2022/05/30 13:58:20;;;;;;;;;;;;;;;;;;4916394;29;20495;-70
2022/05/30 14:00:45;;;;;;;;;;;;;;;;;;4916392;29;19926;-71
2022/05/30 14:03:13;;;;;;;;;;;;;;;;;;4916127;29;20397;-69
2022/05/30 14:05:40;;;;;;;;;;;;;;;;;;4916333;29;19915;-71
2022/05/30 14:08:10;;;;;;;;;;;;;;;;;;4917461;29;19926;-70
2022/05/30 14:10:38;;;;;;;;;;;;;;;;;;4912419;29;19930;-69
2022/05/30 14:13:04;;;;;;;;;;;;;;;;;;4915856;29;19915;-70
2022/05/30 14:15:31;;;;;;;;;;;;;;;;;;4916583;29;19919;-70
2022/05/30 14:17:57;;;;;;;;;;;;;;;;;;4916648;29;19915;-70
2022/05/30 14:20:25;;;;;;;;;;;;;;;;;;4916734;29;19926;-70
2022/05/30 14:22:54;;;;;;;;;;;;;;;;;;4916606;29;19974;-70
2022/05/30 14:25:22;;;;;;;;;;;;;;;;;;4916488;29;20334;-69
2022/05/30 14:27:49;;;;;;;;;;;;;;;;;;4916628;29;19921;-67
2022/05/30 14:30:22;;;;;;;;;;;;;;;;;;4913515;29;19974;-71
2022/05/30 14:32:49;;;;;;;;;;;;;;;;;;4916446;29;19974;-70
2022/05/30 14:35:22;;;;;;;;;;;;;;;;;;4916494;29;19919;-75
2022/05/30 14:37:50;;;;;;;;;;;;;;;;;;4916540;29;19919;-72
2022/05/30 14:40:38;;;;;;;;;;;;;;;;;;4915908;29;20019;-73
2022/05/30 14:43:22;;;;;;;;;;;;;;;;;;4915602;29;20290;-72
2022/05/30 14:45:59;;;;;;;;;;;;;;;;;;4915614;29;20400;-72
2022/05/30 14:48:25;;;;;;;;;;;;;;;;;;4916223;29;19919;-72
2022/05/30 14:50:51;;;;;;;;;;;;;;;;;;4913733;29;20745;-73
2022/05/30 14:53:19;;;;;;;;;;;;;;;;;;4915764;29;19926;-70
2022/05/30 14:55:48;;;;;;;;;;;;;;;;;;4916019;29;19954;-74
2022/05/30 14:58:15;;;;;;;;;;;;;;;;;;4915506;29;20010;-72
2022/05/30 15:00:54;;;;;;;;;;;;;;;;;;4915773;29;19923;-71
2022/05/30 15:06:06;;;;;;;;;;;;;;;;;;4915287;29;19991;-68
2022/05/30 15:08:32;;;;;;;;;;;;;;;;;;4914489;29;20013;-71
2022/05/30 15:11:14;;;;;;;;;;;;;;;;;;4915785;29;19926;-71
2022/05/30 15:13:47;;;;;;;;;;;;;;;;;;4915720;29;19923;-69
2022/05/30 15:16:14;;;;;;;;;;;;;;;;;;4916855;29;19926;-70
2022/05/30 15:18:40;;;;;;;;;;;;;;;;;;4915766;29;19970;-69
2022/05/30 15:21:17;;;;;;;;;;;;;;;;;;4916550;29;20397;-69
2022/05/30 15:23:42;;;;;;;;;;;;;;;;;;4916412;29;19919;-69
2022/05/30 15:26:08;;;;;;;;;;;;;;;;;;4916415;29;20389;-68
2022/05/30 15:28:35;;;;;;;;;;;;;;;;;;4917210;29;20424;-67
2022/05/30 15:31:02;;;;;;;;;;;;;;;;;;4931198;29;19914;-68
2022/05/30 15:33:27;;;;;;;;;;;;;;;;;;4918713;29;20353;-69
2022/05/30 15:35:53;;;;;;;;;;;;;;;;;;4913832;29;20038;-69
2022/05/30 15:38:18;;;;;;;;;;;;;;;;;;4914416;29;19926;-70
2022/05/30 15:40:44;;;;;;;;;;;;;;;;;;4915774;29;19918;-68
2022/05/30 15:43:11;;;;;;;;;;;;;;;;;;4915467;29;20013;-68
2022/05/30 15:45:37;;;;;;;;;;;;;;;;;;4915063;29;20357;-70
2022/05/30 15:48:03;;;;;;;;;;;;;;;;;;4914358;29;19983;-71
2022/05/30 15:50:32;;;;;;;;;;;;;;;;;;4922829;29;20362;-70
2022/05/30 15:58:28;;;;;;;;;;;;;;;;;;4938695;29;19919;-70
2022/05/30 16:00:54;;;;;;;;;;;;;;;;;;4938355;29;20402;-69
2022/05/30 16:03:23;;;;;;;;;;;;;;;;;;4938428;29;19926;-72
2022/05/30 16:05:48;;;;;;;;;;;;;;;;;;4921567;29;19923;-70
2022/05/30 16:08:31;;;;;;;;;;;;;;;;;;4919996;29;19919;-70
2022/05/30 16:10:57;;;;;;;;;;;;;;;;;;4920889;29;19919;-72
2022/05/30 16:13:23;;;;;;;;;;;;;;;;;;4919893;29;19962;-70
2022/05/30 16:15:52;;;;;;;;;;;;;;;;;;4919481;29;19919;-69
2022/05/30 16:18:18;;;;;;;;;;;;;;;;;;4919414;29;19986;-70
2022/05/30 16:20:43;;;;;;;;;;;;;;;;;;4919122;29;20007;-74
2022/05/30 16:23:09;;;;;;;;;;;;;;;;;;4918646;29;19919;-69
2022/05/30 16:25:35;;;;;;;;;;;;;;;;;;4911147;29;19930;-71
2022/05/30 16:28:02;;;;;;;;;;;;;;;;;;4919340;29;20304;-72
2022/05/30 16:30:28;;;;;;;;;;;;;;;;;;4919289;29;19919;-68
2022/05/30 16:32:54;;;;;;;;;;;;;;;;;;4918432;29;19940;-69
2022/05/30 16:35:20;;;;;;;;;;;;;;;;;;4917694;29;19919;-72
2022/05/30 16:37:48;;;;;;;;;;;;;;;;;;4918931;29;20437;-69
2022/05/30 16:40:23;;;;;;;;;;;;;;;;;;4914051;29;19945;-70
2022/05/30 16:42:48;;;;;;;;;;;;;;;;;;4922089;29;19919;-68
2022/05/30 16:45:14;;;;;;;;;;;;;;;;;;4936729;29;20254;-69
2022/05/30 16:47:40;;;;;;;;;;;;;;;;;;4937011;29;19945;-68
2022/05/30 16:50:06;;;;;;;;;;;;;;;;;;4931693;29;19921;-71
2022/05/30 16:52:31;;;;;;;;;;;;;;;;;;4916995;29;19931;-70
2022/05/30 16:54:57;;;;;;;;;;;;;;;;;;4915501;29;19923;-69
2022/05/30 16:57:24;;;;;;;;;;;;;;;;;;4916850;29;19926;-70
2022/05/30 16:59:50;;;;;;;;;;;;;;;;;;4916839;29;19915;-69
2022/05/30 17:02:16;;;;;;;;;;;;;;;;;;4916215;29;19923;-69
2022/05/30 17:04:42;;;;;;;;;;;;;;;;;;4915508;29;19921;-79
2022/05/30 17:07:08;;;;;;;;;;;;;;;;;;4914072;29;20039;-71
2022/05/30 17:09:34;;;;;;;;;;;;;;;;;;4916763;29;20437;-70
2022/05/30 17:12:00;;;;;;;;;;;;;;;;;;4916912;29;20005;-71
2022/05/30 17:14:26;;;;;;;;;;;;;;;;;;4916527;29;19915;-69
2022/05/30 17:16:52;;;;;;;;;;;;;;;;;;4916151;29;19919;-71
2022/05/30 17:19:18;;;;;;;;;;;;;;;;;;4916727;29;19925;-70
2022/05/30 17:21:44;;;;;;;;;;;;;;;;;;4916829;29;20373;-70
2022/05/30 17:24:10;;;;;;;;;;;;;;;;;;4915877;29;19959;-71
2022/05/30 17:29:23;;;;;;;;;;;;;;;;;;4916592;29;19954;-70
2022/05/30 17:31:49;;;;;;;;;;;;;;;;;;4916044;29;20406;-71
2022/05/30 17:34:17;;;;;;;;;;;;;;;;;;4916054;29;20390;-70
2022/05/30 17:36:44;;;;;;;;;;;;;;;;;;4925933;29;19925;-68
2022/05/30 17:39:09;;;;;;;;;;;;;;;;;;4917086;29;19926;-70
2022/05/30 17:41:35;;;;;;;;;;;;;;;;;;4916170;29;20370;-69
2022/05/30 17:44:03;;;;;;;;;;;;;;;;;;4916209;29;20540;-69
2022/05/30 17:46:33;;;;;;;;;;;;;;;;;;4915158;29;19915;-69
2022/05/30 17:49:02;;;;;;;;;;;;;;;;;;4916165;29;19930;-69
2022/05/30 17:51:46;;;;;;;;;;;;;;;;;;4920001;29;20366;-74
2022/05/30 17:54:12;;;;;;;;;;;;;;;;;;4934715;29;19919;-72
2022/05/30 17:56:40;;;;;;;;;;;;;;;;;;4929398;29;19975;-75
2022/05/30 17:59:06;;;;;;;;;;;;;;;;;;4916372;29;19967;-70